Time;durP1;ratioP1;P1;durP2;ratioP2;P2;SDS_P1;SDS_P2;PMS_P1;PMS_P2;Temp;Humidity;BMP_temperature;BMP_pressure;BME280_temperature;BME280_humidity;BME280_pressure;Samples;Min_cycle;Max_cycle;Signal;HPM_P1;HPM_P2
2022/11/22 00:00:27;;;;;;;;;;;3.30;99.90;;;;;;5093098;28;19924;-69
2022/11/22 00:02:52;;;;;;;;;;;2.60;99.90;;;;;;5093823;28;19927;-68
2022/11/22 00:05:18;;;;;;;;;;;2.50;99.90;;;;;;5092999;28;19939;-69
2022/11/22 00:07:44;;;;;;;;;;;2.50;99.90;;;;;;5092331;28;19968;-69
2022/11/22 00:10:11;;;;;;;;;;;2.50;99.90;;;;;;5109796;28;19931;-70
2022/11/22 00:12:36;;;;;;;;;;;3.40;99.90;;;;;;5092679;28;19931;-69
2022/11/22 00:15:02;;;;;;;;;;;2.50;99.90;;;;;;5092440;28;19928;-69
2022/11/22 00:17:29;;;;;;;;;;;2.40;99.90;;;;;;5126975;27;19928;-69
2022/11/22 00:19:55;;;;;;;;;;;2.40;99.90;;;;;;5093531;28;20331;-68
2022/11/22 00:22:21;;;;;;;;;;;2.40;99.90;;;;;;5093604;28;19924;-68
2022/11/22 00:24:46;;;;;;;;;;;2.40;99.90;;;;;;5092255;28;19924;-69
2022/11/22 00:27:12;;;;;;;;;;;2.40;99.90;;;;;;5091870;28;19928;-69
2022/11/22 00:29:37;;;;;;;;;;;2.40;99.90;;;;;;5093121;28;19924;-68
2022/11/22 00:32:03;;;;;;;;;;;2.40;99.90;;;;;;5093390;28;19984;-69
2022/11/22 00:34:28;;;;;;;;;;;2.30;99.90;;;;;;5093315;28;19958;-68
2022/11/22 00:36:54;;;;;;;;;;;2.40;99.90;;;;;;5108734;28;20112;-70
2022/11/22 00:39:20;;;;;;;;;;;2.30;99.90;;;;;;5109246;28;20009;-70
2022/11/22 00:41:45;;;;;;;;;;;2.30;99.90;;;;;;5091404;28;19924;-69
2022/11/22 00:44:11;;;;;;;;;;;2.30;99.90;;;;;;5091791;28;19924;-70
2022/11/22 00:46:36;;;;;;;;;;;2.40;99.90;;;;;;5090911;28;19931;-70
2022/11/22 00:49:02;;;;;;;;;;;2.20;99.90;;;;;;5093252;28;20369;-70
2022/11/22 00:51:28;;;;;;;;;;;2.30;99.90;;;;;;5093229;28;19933;-69
2022/11/22 00:53:53;;;;;;;;;;;2.30;99.90;;;;;;5092888;28;19924;-70
2022/11/22 00:56:19;;;;;;;;;;;2.30;99.90;;;;;;5125980;27;20408;-69
2022/11/22 00:58:44;;;;;;;;;;;2.30;99.90;;;;;;5091716;28;19979;-67
2022/11/22 01:01:10;;;;;;;;;;;2.40;99.90;;;;;;5092215;28;19967;-69
2022/11/22 01:03:35;;;;;;;;;;;2.80;99.90;;;;;;5075004;28;19923;-69
2022/11/22 01:06:01;;;;;;;;;;;2.30;99.90;;;;;;5091573;28;20371;-69
2022/11/22 01:08:26;;;;;;;;;;;2.20;99.90;;;;;;5092756;28;19953;-69
2022/11/22 01:10:56;;;;;;;;;;;2.20;99.90;;;;;;5092610;28;19924;-69
2022/11/22 01:13:21;;;;;;;;;;;2.20;99.90;;;;;;5108536;28;20318;-67
2022/11/22 01:15:47;;;;;;;;;;;2.30;99.90;;;;;;5091306;28;19931;-69
2022/11/22 01:18:12;;;;;;;;;;;2.20;99.90;;;;;;5091782;28;19924;-71
2022/11/22 01:20:41;;;;;;;;;;;2.20;99.90;;;;;;5092642;28;20015;-69
2022/11/22 01:23:07;;;;;;;;;;;2.20;99.90;;;;;;5125587;27;19924;-68
2022/11/22 01:25:32;;;;;;;;;;;2.20;99.90;;;;;;5091714;28;19924;-69
2022/11/22 01:27:58;;;;;;;;;;;2.30;99.90;;;;;;5091371;28;19924;-69
2022/11/22 01:30:23;;;;;;;;;;;2.20;99.90;;;;;;5092778;28;19979;-69
2022/11/22 01:32:49;;;;;;;;;;;2.20;99.90;;;;;;5092086;28;19924;-69
2022/11/22 01:35:14;;;;;;;;;;;2.60;99.90;;;;;;5091480;28;19928;-70
2022/11/22 01:37:40;;;;;;;;;;;2.20;99.90;;;;;;5090387;28;19931;-70
2022/11/22 01:40:06;;;;;;;;;;;2.20;99.90;;;;;;5091533;28;20012;-68
2022/11/22 01:43:01;;;;;;;;;;;2.30;99.90;;;;;;5092076;28;20297;-69
2022/11/22 01:45:29;;;;;;;;;;;2.30;99.90;;;;;;5082877;28;19967;-68
2022/11/22 01:48:03;;;;;;;;;;;2.20;99.90;;;;;;5090324;28;19928;-71
2022/11/22 01:50:31;;;;;;;;;;;2.30;99.90;;;;;;5124920;27;19991;-70
2022/11/22 01:52:59;;;;;;;;;;;2.40;99.90;;;;;;5091342;28;20357;-69
2022/11/22 01:55:25;;;;;;;;;;;2.30;99.90;;;;;;5092022;28;19931;-69
2022/11/22 01:57:51;;;;;;;;;;;2.50;99.90;;;;;;5090641;28;19924;-69
2022/11/22 02:00:17;;;;;;;;;;;2.30;99.90;;;;;;5090756;28;19928;-69
2022/11/22 02:02:45;;;;;;;;;;;2.30;99.90;;;;;;5090895;28;20057;-69
2022/11/22 02:05:16;;;;;;;;;;;2.90;99.90;;;;;;5124426;27;20444;-69
2022/11/22 02:07:46;;;;;;;;;;;2.30;99.90;;;;;;5090499;28;19935;-70
2022/11/22 02:10:13;;;;;;;;;;;2.40;99.90;;;;;;5124817;28;19928;-70
2022/11/22 02:12:39;;;;;;;;;;;2.30;99.90;;;;;;5107400;28;19924;-69
2022/11/22 02:15:06;;;;;;;;;;;2.40;99.90;;;;;;5090433;28;19924;-70
2022/11/22 02:17:33;;;;;;;;;;;2.40;99.90;;;;;;5090757;28;20373;-69
2022/11/22 02:19:58;;;;;;;;;;;2.40;99.90;;;;;;5091267;28;20129;-70
2022/11/22 02:22:32;;;;;;;;;;;2.40;99.90;;;;;;5091981;28;20031;-69
2022/11/22 02:25:05;;;;;;;;;;;2.40;99.90;;;;;;5124525;28;20353;-69
2022/11/22 02:27:31;;;;;;;;;;;2.40;99.90;;;;;;5107246;28;19924;-68
2022/11/22 02:29:56;;;;;;;;;;;2.60;99.90;;;;;;5091300;28;19930;-69
2022/11/22 02:32:22;;;;;;;;;;;2.50;99.90;;;;;;5091272;28;19936;-69
2022/11/22 02:34:48;;;;;;;;;;;2.50;99.90;;;;;;5090636;28;19947;-70
2022/11/22 02:37:16;;;;;;;;;;;2.40;99.90;;;;;;5089733;28;20011;-71
2022/11/22 02:39:43;;;;;;;;;;;2.50;99.90;;;;;;5091927;28;19971;-70
2022/11/22 02:42:09;;;;;;;;;;;2.50;99.90;;;;;;5090347;28;19931;-71
2022/11/22 02:44:35;;;;;;;;;;;2.50;99.90;;;;;;5090373;28;20015;-68
2022/11/22 02:47:00;;;;;;;;;;;2.50;99.90;;;;;;5090458;28;19931;-69
2022/11/22 02:49:26;;;;;;;;;;;2.50;99.90;;;;;;5091637;28;20056;-71
2022/11/22 02:51:52;;;;;;;;;;;2.50;99.90;;;;;;5090221;28;20315;-69
2022/11/22 02:54:18;;;;;;;;;;;2.50;99.90;;;;;;5090856;28;19924;-71
2022/11/22 02:56:44;;;;;;;;;;;2.50;99.90;;;;;;5091383;28;19941;-69
2022/11/22 02:59:09;;;;;;;;;;;2.50;99.90;;;;;;5091073;28;20117;-69
2022/11/22 03:01:35;;;;;;;;;;;2.50;99.90;;;;;;5091236;28;20073;-70
2022/11/22 03:04:01;;;;;;;;;;;2.50;99.90;;;;;;5091284;28;19977;-69
2022/11/22 03:06:26;;;;;;;;;;;2.50;99.90;;;;;;5090034;28;19924;-69
2022/11/22 03:08:52;;;;;;;;;;;3.00;99.90;;;;;;5091877;28;19971;-69
2022/11/22 03:11:17;;;;;;;;;;;2.60;99.90;;;;;;5093474;28;19924;-69
2022/11/22 03:13:43;;;;;;;;;;;2.50;99.90;;;;;;5095029;28;19977;-69
2022/11/22 03:16:09;;;;;;;;;;;2.50;99.90;;;;;;5093530;28;19924;-69
2022/11/22 03:18:35;;;;;;;;;;;2.50;99.90;;;;;;5094870;28;19924;-70
2022/11/22 03:21:05;;;;;;;;;;;2.50;99.90;;;;;;5094573;28;19963;-69
2022/11/22 03:23:31;;;;;;;;;;;2.60;99.90;;;;;;5127990;27;19925;-71
2022/11/22 03:25:57;;;;;;;;;;;2.60;99.90;;;;;;5127946;27;19924;-69
2022/11/22 03:28:22;;;;;;;;;;;2.70;99.90;;;;;;5094913;28;19986;-69
2022/11/22 03:30:48;;;;;;;;;;;2.70;99.90;;;;;;5093219;28;19971;-70
2022/11/22 03:33:13;;;;;;;;;;;2.70;99.90;;;;;;5094469;28;20269;-70
2022/11/22 03:35:39;;;;;;;;;;;2.70;99.90;;;;;;5092894;28;19924;-68
2022/11/22 03:38:05;;;;;;;;;;;2.70;99.90;;;;;;5093568;28;19924;-68
2022/11/22 03:40:30;;;;;;;;;;;2.60;99.90;;;;;;5094272;28;19925;-68
2022/11/22 03:43:00;;;;;;;;;;;2.60;99.90;;;;;;5093952;28;19946;-68
2022/11/22 03:45:26;;;;;;;;;;;2.60;99.90;;;;;;5092941;28;19924;-70
2022/11/22 03:47:52;;;;;;;;;;;2.60;99.90;;;;;;5094054;28;20258;-68
2022/11/22 03:50:17;;;;;;;;;;;2.60;99.90;;;;;;5093948;28;19924;-68
2022/11/22 03:52:43;;;;;;;;;;;3.10;99.90;;;;;;5093164;28;19928;-69
2022/11/22 03:55:08;;;;;;;;;;;2.60;99.90;;;;;;5092393;28;20064;-68
2022/11/22 03:57:34;;;;;;;;;;;2.60;99.90;;;;;;5094251;28;20392;-68
2022/11/22 03:59:59;;;;;;;;;;;2.70;99.90;;;;;;5093020;28;19924;-70
2022/11/22 04:02:25;;;;;;;;;;;3.10;99.90;;;;;;5092599;28;19928;-68
2022/11/22 04:04:50;;;;;;;;;;;2.70;99.90;;;;;;5075871;28;19924;-76
2022/11/22 04:07:16;;;;;;;;;;;2.70;99.90;;;;;;5093302;28;19930;-68
2022/11/22 04:09:41;;;;;;;;;;;2.70;99.90;;;;;;5092516;28;19928;-68
2022/11/22 04:12:07;;;;;;;;;;;2.80;99.90;;;;;;5093550;28;19931;-67
2022/11/22 04:17:39;;;;;;;;;;;2.80;99.90;;;;;;5126318;27;19989;-67
2022/11/22 04:22:57;;;;;;;;;;;2.80;99.90;;;;;;5093734;28;20278;-67
2022/11/22 04:25:23;;;;;;;;;;;2.90;99.90;;;;;;5093372;28;19935;-67
2022/11/22 04:27:48;;;;;;;;;;;2.90;99.90;;;;;;5093518;28;19924;-72
2022/11/22 04:30:14;;;;;;;;;;;2.90;99.90;;;;;;5092182;28;20010;-69
2022/11/22 04:32:46;;;;;;;;;;;3.00;99.90;;;;;;5093506;28;19928;-68
2022/11/22 04:35:15;;;;;;;;;;;3.20;99.90;;;;;;5092885;28;20394;-67
2022/11/22 04:37:41;;;;;;;;;;;3.00;99.90;;;;;;5091939;28;20285;-67
2022/11/22 04:40:07;;;;;;;;;;;3.00;99.90;;;;;;5093206;28;19924;-75
2022/11/22 04:45:17;;;;;;;;;;;3.00;99.90;;;;;;5092765;28;19924;-67
2022/11/22 04:47:58;;;;;;;;;;;3.00;99.90;;;;;;5091962;28;20402;-68
2022/11/22 04:53:08;;;;;;;;;;;2.70;99.90;;;;;;5092702;28;20449;-69
2022/11/22 04:55:33;;;;;;;;;;;3.10;99.90;;;;;;5125199;27;19963;-67
2022/11/22 04:57:59;;;;;;;;;;;3.10;99.90;;;;;;5092878;28;19924;-67
2022/11/22 05:00:26;;;;;;;;;;;3.10;99.90;;;;;;5092527;28;20014;-68
2022/11/22 05:02:52;;;;;;;;;;;3.10;99.90;;;;;;5092938;28;19989;-67
2022/11/22 05:05:17;;;;;;;;;;;3.20;99.90;;;;;;5092287;28;20369;-66
2022/11/22 05:07:43;;;;;;;;;;;3.20;99.90;;;;;;5092364;28;19975;-67
2022/11/22 05:10:09;;;;;;;;;;;3.10;99.90;;;;;;5090916;28;19924;-67
2022/11/22 05:12:34;;;;;;;;;;;3.20;99.90;;;;;;5108119;28;19924;-67
2022/11/22 05:15:00;;;;;;;;;;;3.20;99.90;;;;;;5091291;28;19946;-68
2022/11/22 05:17:25;;;;;;;;;;;3.20;99.90;;;;;;5090955;28;19931;-67
2022/11/22 05:19:51;;;;;;;;;;;3.20;99.90;;;;;;5092502;28;20019;-67
2022/11/22 05:23:52;;;;;;;;;;;3.20;99.90;;;;;;5092027;28;19924;-69
2022/11/22 05:25:03;;;;;;;;;;;3.30;99.90;;;;;;5092437;28;19937;-67
2022/11/22 05:27:28;;;;;;;;;;;3.30;99.90;;;;;;5091990;28;19931;-67
2022/11/22 05:29:54;;;;;;;;;;;3.30;99.90;;;;;;5091247;28;19924;-68
2022/11/22 05:32:19;;;;;;;;;;;3.30;99.90;;;;;;5091917;28;19924;-67
2022/11/22 05:34:45;;;;;;;;;;;3.40;99.90;;;;;;5090759;28;20404;-67
2022/11/22 05:37:11;;;;;;;;;;;3.40;99.90;;;;;;5107596;28;19924;-68
2022/11/22 05:39:36;;;;;;;;;;;3.30;99.90;;;;;;5091406;28;20506;-67
2022/11/22 05:42:04;;;;;;;;;;;3.30;99.90;;;;;;5091154;28;19935;-68
2022/11/22 05:44:30;;;;;;;;;;;3.30;99.90;;;;;;5091851;28;20314;-67
2022/11/22 05:46:56;;;;;;;;;;;3.40;99.90;;;;;;5092203;28;19924;-70
2022/11/22 05:49:21;;;;;;;;;;;3.40;99.90;;;;;;5107706;28;20331;-67
2022/11/22 05:51:47;;;;;;;;;;;3.30;99.90;;;;;;5090430;28;19939;-68
2022/11/22 05:54:12;;;;;;;;;;;3.70;99.90;;;;;;5091281;28;19924;-67
2022/11/22 05:56:38;;;;;;;;;;;3.40;99.90;;;;;;5073847;28;20096;-67
2022/11/22 05:59:03;;;;;;;;;;;3.40;99.90;;;;;;5091085;28;19981;-66
2022/11/22 06:01:29;;;;;;;;;;;3.40;99.90;;;;;;5091419;28;20022;-66
2022/11/22 06:03:54;;;;;;;;;;;3.40;99.90;;;;;;5092247;28;19924;-66
2022/11/22 06:06:20;;;;;;;;;;;3.40;99.90;;;;;;5091594;28;19931;-75
2022/11/22 06:08:47;;;;;;;;;;;3.50;99.90;;;;;;5091830;28;19969;-68
2022/11/22 06:11:17;;;;;;;;;;;3.50;99.90;;;;;;5091867;28;19935;-66
2022/11/22 06:13:43;;;;;;;;;;;3.50;99.90;;;;;;5091434;28;20343;-66
2022/11/22 06:16:09;;;;;;;;;;;3.60;99.90;;;;;;5091833;28;20473;-66
2022/11/22 06:18:35;;;;;;;;;;;3.60;99.90;;;;;;5091511;28;20020;-65
2022/11/22 06:21:02;;;;;;;;;;;3.50;99.90;;;;;;5091466;28;19977;-68
2022/11/22 06:23:28;;;;;;;;;;;3.50;99.90;;;;;;5123871;28;19971;-65
2022/11/22 06:26:01;;;;;;;;;;;3.50;99.90;;;;;;5091201;28;20024;-65
2022/11/22 06:28:28;;;;;;;;;;;3.50;99.90;;;;;;5090988;28;19975;-65
2022/11/22 06:30:53;;;;;;;;;;;3.50;99.90;;;;;;5091481;28;19925;-69
2022/11/22 06:33:19;;;;;;;;;;;3.60;99.90;;;;;;5107318;28;19931;-67
2022/11/22 06:35:45;;;;;;;;;;;3.60;99.90;;;;;;5090644;28;20101;-66
2022/11/22 06:38:10;;;;;;;;;;;3.60;99.90;;;;;;5123948;28;20010;-66
2022/11/22 06:40:36;;;;;;;;;;;3.60;99.90;;;;;;5090957;28;19924;-66
2022/11/22 06:43:01;;;;;;;;;;;3.60;99.90;;;;;;5091194;28;19928;-66
2022/11/22 06:45:27;;;;;;;;;;;3.70;99.90;;;;;;5127179;27;19982;-73
2022/11/22 06:47:52;;;;;;;;;;;3.70;99.90;;;;;;5095361;28;19924;-70
2022/11/22 06:50:18;;;;;;;;;;;3.70;99.90;;;;;;5094778;28;20014;-67
2022/11/22 06:52:49;;;;;;;;;;;3.70;99.90;;;;;;5094904;28;19924;-69
2022/11/22 06:55:14;;;;;;;;;;;3.60;99.90;;;;;;5095254;28;20011;-67
2022/11/22 06:57:40;;;;;;;;;;;3.70;99.90;;;;;;5093433;28;20014;-67
2022/11/22 07:00:06;;;;;;;;;;;3.70;99.90;;;;;;5092755;28;19942;-67
2022/11/22 07:02:32;;;;;;;;;;;3.70;99.90;;;;;;5093876;28;20018;-69
2022/11/22 07:04:57;;;;;;;;;;;3.70;99.90;;;;;;5093100;28;20289;-67
2022/11/22 07:07:23;;;;;;;;;;;4.10;99.90;;;;;;5094419;28;20269;-73
2022/11/22 07:09:48;;;;;;;;;;;3.80;99.90;;;;;;5094425;28;20589;-68
2022/11/22 07:12:14;;;;;;;;;;;3.80;99.90;;;;;;5095045;28;20065;-67
2022/11/22 07:14:39;;;;;;;;;;;3.80;99.90;;;;;;5094740;28;19931;-67
2022/11/22 07:17:05;;;;;;;;;;;3.80;99.90;;;;;;5093839;28;19924;-68
2022/11/22 07:19:32;;;;;;;;;;;3.80;99.90;;;;;;5094383;28;19925;-80
2022/11/22 07:21:57;;;;;;;;;;;3.80;99.90;;;;;;5094621;28;19924;-68
2022/11/22 07:24:23;;;;;;;;;;;3.80;99.90;;;;;;5094641;28;20011;-69
2022/11/22 07:26:48;;;;;;;;;;;3.80;99.90;;;;;;5076269;28;19924;-68
2022/11/22 07:29:14;;;;;;;;;;;4.00;99.90;;;;;;5076049;28;19977;-68
2022/11/22 07:31:40;;;;;;;;;;;4.10;99.90;;;;;;5094168;28;19932;-67
2022/11/22 07:34:05;;;;;;;;;;;4.00;99.90;;;;;;5093998;28;19924;-68
2022/11/22 07:36:31;;;;;;;;;;;3.90;99.90;;;;;;5127587;27;19924;-70
2022/11/22 07:38:57;;;;;;;;;;;4.00;99.90;;;;;;5093838;28;19924;-68
2022/11/22 07:41:22;;;;;;;;;;;4.10;99.90;;;;;;5094356;28;19924;-68
2022/11/22 07:43:48;;;;;;;;;;;4.00;99.90;;;;;;5092730;28;19982;-68
2022/11/22 07:46:24;;;;;;;;;;;4.10;99.90;;;;;;5094186;28;20272;-68
2022/11/22 07:48:50;;;;;;;;;;;4.10;99.90;;;;;;5092422;28;19924;-74
2022/11/22 07:51:16;;;;;;;;;;;4.10;99.90;;;;;;5094075;28;19989;-67
2022/11/22 07:53:42;;;;;;;;;;;4.20;99.90;;;;;;5093912;28;19932;-68
2022/11/22 07:56:07;;;;;;;;;;;4.20;99.90;;;;;;5093650;28;19925;-70
2022/11/22 07:58:33;;;;;;;;;;;4.30;99.90;;;;;;5094094;28;19924;-65
2022/11/22 08:01:10;;;;;;;;;;;4.30;99.90;;;;;;5092596;28;20281;-67
2022/11/22 08:03:35;;;;;;;;;;;4.30;99.90;;;;;;5093710;28;19924;-75
2022/11/22 08:06:02;;;;;;;;;;;4.40;99.90;;;;;;5094326;28;19928;-69
2022/11/22 08:08:28;;;;;;;;;;;4.40;99.90;;;;;;5093789;28;19924;-70
2022/11/22 08:10:53;;;;;;;;;;;4.40;99.90;;;;;;5075713;28;19924;-70
2022/11/22 08:13:19;;;;;;;;;;;4.40;99.90;;;;;;5092560;28;19947;-70
2022/11/22 08:15:47;;;;;;;;;;;4.50;99.90;;;;;;5093653;28;19924;-72
2022/11/22 08:18:13;;;;;;;;;;;4.50;99.90;;;;;;5126809;27;20418;-70
2022/11/22 08:20:38;;;;;;;;;;;4.60;99.90;;;;;;5092777;28;20030;-81
2022/11/22 08:23:04;;;;;;;;;;;4.60;99.90;;;;;;5092406;28;19924;-67
2022/11/22 08:25:29;;;;;;;;;;;4.70;99.90;;;;;;5093315;28;19931;-67
2022/11/22 08:27:55;;;;;;;;;;;4.60;99.90;;;;;;5092501;28;19924;-71
2022/11/22 08:30:20;;;;;;;;;;;4.70;99.90;;;;;;5091425;28;19930;-68
2022/11/22 08:32:46;;;;;;;;;;;4.70;99.90;;;;;;5091512;28;19932;-68
2022/11/22 08:35:12;;;;;;;;;;;4.80;99.90;;;;;;5093087;28;19928;-70
2022/11/22 08:37:38;;;;;;;;;;;4.80;99.90;;;;;;5092955;28;19985;-69
2022/11/22 08:40:04;;;;;;;;;;;4.90;99.90;;;;;;5091833;28;19931;-68
2022/11/22 08:42:29;;;;;;;;;;;5.00;99.90;;;;;;5093059;28;19923;-69
2022/11/22 08:44:55;;;;;;;;;;;5.00;99.90;;;;;;5125692;27;19997;-72
2022/11/22 08:47:20;;;;;;;;;;;5.00;99.90;;;;;;5092779;28;19970;-71
2022/11/22 08:49:46;;;;;;;;;;;5.10;99.90;;;;;;5092719;28;19930;-68
2022/11/22 08:52:12;;;;;;;;;;;5.20;99.90;;;;;;5126298;27;19928;-68
2022/11/22 08:54:37;;;;;;;;;;;5.20;99.90;;;;;;5126353;27;19924;-68
2022/11/22 08:57:03;;;;;;;;;;;5.20;99.90;;;;;;5091113;28;19924;-71
2022/11/22 08:59:28;;;;;;;;;;;5.20;99.90;;;;;;5125559;27;19924;-70
2022/11/22 09:01:54;;;;;;;;;;;5.30;99.90;;;;;;5089005;28;19924;-69
2022/11/22 09:04:20;;;;;;;;;;;5.40;99.90;;;;;;5092211;28;20229;-69
2022/11/22 09:06:45;;;;;;;;;;;5.40;99.90;;;;;;5107469;28;19931;-69
2022/11/22 09:09:11;;;;;;;;;;;5.80;99.90;;;;;;5092643;28;19928;-69
2022/11/22 09:11:36;;;;;;;;;;;5.30;99.90;;;;;;5091502;28;19924;-69
2022/11/22 09:14:02;;;;;;;;;;;5.40;99.90;;;;;;5091741;28;19924;-70
2022/11/22 09:16:27;;;;;;;;;;;5.40;99.90;;;;;;5092579;28;20043;-73
2022/11/22 09:18:53;;;;;;;;;;;5.40;99.90;;;;;;5106729;28;19930;-71
2022/11/22 09:21:19;;;;;;;;;;;5.40;99.90;;;;;;5121746;27;20391;-72
2022/11/22 09:23:46;;;;;;;;;;;5.40;99.90;;;;;;5054229;28;19931;-69
2022/11/22 09:26:21;;;;;;;;;;;5.40;99.90;;;;;;5089545;28;19934;-72
2022/11/22 09:28:47;;;;;;;;;;;5.50;99.90;;;;;;5090467;28;19975;-80
2022/11/22 09:31:13;;;;;;;;;;;5.50;99.90;;;;;;5089719;28;19990;-68
2022/11/22 09:33:40;;;;;;;;;;;5.60;99.90;;;;;;5092447;28;20384;-69
2022/11/22 09:36:07;;;;;;;;;;;5.50;99.90;;;;;;5091419;28;20011;-69
2022/11/22 09:38:33;;;;;;;;;;;5.50;99.90;;;;;;5092394;28;20018;-74
2022/11/22 09:41:01;;;;;;;;;;;5.50;99.90;;;;;;5092272;28;19935;-69
2022/11/22 09:43:26;;;;;;;;;;;5.50;99.90;;;;;;5092713;28;19924;-67
2022/11/22 09:46:14;;;;;;;;;;;5.60;99.90;;;;;;5092491;28;19931;-79
2022/11/22 09:48:46;;;;;;;;;;;5.50;99.90;;;;;;5074389;28;19924;-73
2022/11/22 09:51:14;;;;;;;;;;;5.40;99.90;;;;;;5092168;28;20198;-69
2022/11/22 09:53:43;;;;;;;;;;;5.50;99.90;;;;;;5090999;28;20370;-69
2022/11/22 09:56:14;;;;;;;;;;;5.50;99.90;;;;;;5091729;28;20007;-68
2022/11/22 09:58:47;;;;;;;;;;;5.50;99.90;;;;;;5091283;28;19943;-73
2022/11/22 10:01:19;;;;;;;;;;;5.50;99.90;;;;;;5092373;28;19920;-69
2022/11/22 10:03:44;;;;;;;;;;;5.50;99.90;;;;;;5092392;28;19924;-68
2022/11/22 10:06:17;;;;;;;;;;;5.50;99.90;;;;;;5091916;28;20400;-68
2022/11/22 10:08:47;;;;;;;;;;;5.50;99.90;;;;;;5090920;28;19931;-73
2022/11/22 10:11:34;;;;;;;;;;;5.50;99.90;;;;;;5091333;28;19924;-68
2022/11/22 10:14:02;;;;;;;;;;;5.60;99.90;;;;;;5091479;28;20022;-67
2022/11/22 10:16:34;;;;;;;;;;;5.70;99.90;;;;;;5092182;28;19924;-74
2022/11/22 10:19:07;;;;;;;;;;;5.70;99.90;;;;;;5091538;28;19928;-68
2022/11/22 10:21:32;;;;;;;;;;;5.70;99.90;;;;;;5094960;28;20515;-68
2022/11/22 10:23:58;;;;;;;;;;;5.70;99.90;;;;;;5095792;28;19924;-69
2022/11/22 10:26:26;;;;;;;;;;;5.70;99.90;;;;;;5096432;28;20353;-69
2022/11/22 10:29:03;;;;;;;;;;;5.70;99.90;;;;;;5096025;28;19928;-75
2022/11/22 10:31:32;;;;;;;;;;;5.80;99.90;;;;;;5096183;28;19924;-69
2022/11/22 10:34:24;;;;;;;;;;;5.80;99.90;;;;;;5128402;27;19925;-76
2022/11/22 10:37:09;;;;;;;;;;;5.80;99.90;;;;;;5070919;28;19932;-68
2022/11/22 10:39:42;;;;;;;;;;;5.90;99.90;;;;;;5095437;28;20349;-67
2022/11/22 10:42:40;;;;;;;;;;;5.90;99.90;;;;;;5095276;28;20010;-68
2022/11/22 10:45:09;;;;;;;;;;;5.90;99.90;;;;;;5094190;27;20331;-65
2022/11/22 10:47:41;;;;;;;;;;;6.00;99.90;;;;;;5095376;28;19931;-68
2022/11/22 10:50:39;;;;;;;;;;;6.00;99.90;;;;;;5094857;28;19931;-67
2022/11/22 10:53:23;;;;;;;;;;;6.00;99.90;;;;;;5070909;28;19931;-69
2022/11/22 10:55:51;;;;;;;;;;;6.10;99.90;;;;;;5095264;28;19931;-68
2022/11/22 10:58:36;;;;;;;;;;;6.20;99.90;;;;;;5094077;28;20349;-69
2022/11/22 11:01:08;;;;;;;;;;;6.20;99.90;;;;;;5110892;28;20384;-74
2022/11/22 11:03:36;;;;;;;;;;;6.30;99.90;;;;;;5095259;28;20361;-70
2022/11/22 11:06:04;;;;;;;;;;;6.30;99.90;;;;;;5094803;28;19928;-77
2022/11/22 11:08:30;;;;;;;;;;;6.40;99.90;;;;;;5095266;28;20300;-70
2022/11/22 11:10:55;;;;;;;;;;;6.40;99.90;;;;;;5094625;28;19924;-67
2022/11/22 11:13:26;;;;;;;;;;;6.40;99.90;;;;;;5094422;28;19931;-67
2022/11/22 11:15:55;;;;;;;;;;;6.50;99.90;;;;;;5094910;28;19934;-68
2022/11/22 11:18:35;;;;;;;;;;;6.50;99.90;;;;;;5094467;28;19924;-69
2022/11/22 11:21:00;;;;;;;;;;;6.60;99.90;;;;;;5094710;28;20019;-74
2022/11/22 11:23:26;;;;;;;;;;;6.60;99.90;;;;;;5094794;28;19924;-69
2022/11/22 11:25:51;;;;;;;;;;;6.60;99.90;;;;;;5094302;28;19928;-69
2022/11/22 11:28:26;;;;;;;;;;;6.60;99.90;;;;;;5092990;28;19924;-69
2022/11/22 11:30:53;;;;;;;;;;;6.60;99.90;;;;;;5126815;27;19928;-69
2022/11/22 11:33:30;;;;;;;;;;;6.60;99.90;;;;;;5093953;28;19924;-70
2022/11/22 11:36:06;;;;;;;;;;;6.70;99.90;;;;;;5110300;28;19931;-70
2022/11/22 11:38:34;;;;;;;;;;;6.60;99.90;;;;;;5094396;28;19924;-71
2022/11/22 11:41:17;;;;;;;;;;;6.70;99.90;;;;;;5076484;28;19978;-70
2022/11/22 11:43:43;;;;;;;;;;;6.70;99.90;;;;;;5094475;28;20359;-70
2022/11/22 11:46:20;;;;;;;;;;;6.70;99.90;;;;;;5093859;28;19971;-72
2022/11/22 11:48:46;;;;;;;;;;;6.60;99.90;;;;;;5094256;28;20355;-69
2022/11/22 11:51:18;;;;;;;;;;;6.70;99.90;;;;;;5094185;28;19934;-70
2022/11/22 11:53:53;;;;;;;;;;;6.70;99.90;;;;;;5093174;28;20290;-71
2022/11/22 11:56:38;;;;;;;;;;;6.70;99.90;;;;;;5093325;28;19924;-68
2022/11/22 11:59:06;;;;;;;;;;;6.70;99.90;;;;;;5092898;28;19928;-68
2022/11/22 12:01:33;;;;;;;;;;;6.70;99.90;;;;;;5093265;28;20502;-67
2022/11/22 12:04:00;;;;;;;;;;;6.80;99.90;;;;;;5109769;28;20377;-67
2022/11/22 12:06:28;;;;;;;;;;;6.80;99.90;;;;;;5093430;28;20511;-73
2022/11/22 12:08:53;;;;;;;;;;;6.80;99.90;;;;;;5126116;27;19976;-69
2022/11/22 12:11:29;;;;;;;;;;;6.90;99.90;;;;;;5093189;28;20456;-68
2022/11/22 12:14:00;;;;;;;;;;;6.90;99.90;;;;;;5093698;28;19924;-71
2022/11/22 12:16:30;;;;;;;;;;;7.00;99.90;;;;;;5093229;28;19943;-69
2022/11/22 12:19:05;;;;;;;;;;;7.00;99.90;;;;;;5093281;28;20403;-69
2022/11/22 12:21:36;;;;;;;;;;;7.00;99.90;;;;;;5093078;28;19920;-70
2022/11/22 12:24:06;;;;;;;;;;;7.10;99.90;;;;;;5093247;28;19928;-74
2022/11/22 12:26:31;;;;;;;;;;;7.10;99.90;;;;;;5126235;27;19932;-70
2022/11/22 12:28:57;;;;;;;;;;;7.10;99.90;;;;;;5093547;28;19969;-69
2022/11/22 12:31:27;;;;;;;;;;;7.10;99.90;;;;;;5092214;28;20279;-72
2022/11/22 12:34:01;;;;;;;;;;;7.10;99.90;;;;;;5093504;28;20427;-72
2022/11/22 12:36:31;;;;;;;;;;;7.10;99.90;;;;;;5092941;28;20387;-72
2022/11/22 12:38:58;;;;;;;;;;;7.10;99.90;;;;;;5092005;28;19928;-68
2022/11/22 12:41:26;;;;;;;;;;;7.10;99.90;;;;;;5092146;28;19924;-68
2022/11/22 12:44:00;;;;;;;;;;;7.10;99.90;;;;;;5092770;28;20311;-69
2022/11/22 12:46:32;;;;;;;;;;;7.10;99.90;;;;;;5092393;28;19924;-70
2022/11/22 12:49:01;;;;;;;;;;;7.10;99.90;;;;;;5125957;27;19979;-69
2022/11/22 12:51:36;;;;;;;;;;;7.10;99.90;;;;;;5092245;28;20393;-69
2022/11/22 12:54:03;;;;;;;;;;;7.10;99.90;;;;;;5093036;28;19982;-69
2022/11/22 12:56:35;;;;;;;;;;;7.10;99.90;;;;;;5092480;28;19924;-72
2022/11/22 12:59:04;;;;;;;;;;;7.10;99.90;;;;;;5092003;28;19946;-68
2022/11/22 13:01:37;;;;;;;;;;;7.10;99.90;;;;;;5125553;27;19924;-72
2022/11/22 13:04:15;;;;;;;;;;;7.10;99.90;;;;;;5092824;28;19924;-69
2022/11/22 13:06:47;;;;;;;;;;;7.10;99.90;;;;;;5091285;28;19931;-69
2022/11/22 13:09:16;;;;;;;;;;;7.10;99.90;;;;;;5091296;28;19924;-69
2022/11/22 13:11:53;;;;;;;;;;;7.20;99.90;;;;;;5125495;27;19930;-69
2022/11/22 13:14:22;;;;;;;;;;;7.10;99.90;;;;;;5092349;28;19969;-70
2022/11/22 13:16:48;;;;;;;;;;;7.10;99.90;;;;;;5074719;28;19924;-72
2022/11/22 13:19:15;;;;;;;;;;;7.10;99.90;;;;;;5074762;28;19973;-69
2022/11/22 13:22:00;;;;;;;;;;;7.10;99.90;;;;;;5090539;28;20449;-72
2022/11/22 13:24:51;;;;;;;;;;;7.10;99.90;;;;;;5091755;28;19967;-71
2022/11/22 13:27:17;;;;;;;;;;;7.10;99.90;;;;;;5091444;28;19936;-73
2022/11/22 13:29:45;;;;;;;;;;;7.10;99.90;;;;;;5089993;28;20197;-70
2022/11/22 13:32:10;;;;;;;;;;;7.10;99.90;;;;;;5092361;28;19924;-70
2022/11/22 13:34:40;;;;;;;;;;;7.20;99.90;;;;;;5090898;28;19924;-71
2022/11/22 13:37:09;;;;;;;;;;;7.10;99.90;;;;;;5091037;28;19931;-69
2022/11/22 13:39:37;;;;;;;;;;;7.10;99.90;;;;;;5124484;27;19985;-69
2022/11/22 13:42:05;;;;;;;;;;;7.10;99.90;;;;;;5091253;28;19924;-70
2022/11/22 13:44:30;;;;;;;;;;;7.10;99.90;;;;;;5091928;28;19924;-69
2022/11/22 13:47:00;;;;;;;;;;;7.20;99.90;;;;;;5091509;28;19924;-69
2022/11/22 13:49:29;;;;;;;;;;;7.20;99.90;;;;;;5090335;28;19924;-69
2022/11/22 13:51:56;;;;;;;;;;;7.10;99.90;;;;;;5092088;28;19975;-69
2022/11/22 13:54:41;;;;;;;;;;;7.20;99.90;;;;;;5124595;27;19928;-80
2022/11/22 13:57:26;;;;;;;;;;;7.10;99.90;;;;;;5124976;27;19924;-69
2022/11/22 14:00:10;;;;;;;;;;;7.10;99.90;;;;;;5091548;28;19928;-68
2022/11/22 14:02:36;;;;;;;;;;;7.10;99.90;;;;;;5091447;28;19924;-71
2022/11/22 14:05:01;;;;;;;;;;;7.20;99.90;;;;;;5125031;27;19935;-74
2022/11/22 14:07:32;;;;;;;;;;;7.10;99.90;;;;;;5124252;27;20285;-70
2022/11/22 14:09:59;;;;;;;;;;;7.10;99.90;;;;;;5091367;28;20336;-70
2022/11/22 14:12:36;;;;;;;;;;;7.10;99.90;;;;;;5091477;28;19924;-79
2022/11/22 14:15:14;;;;;;;;;;;7.10;99.90;;;;;;5090447;28;19931;-70
2022/11/22 14:18:16;;;;;;;;;;;7.20;99.90;;;;;;5088321;28;19931;-72
2022/11/22 14:20:47;;;;;;;;;;;7.20;99.90;;;;;;5060984;28;19933;-78
2022/11/22 14:23:16;;;;;;;;;;;7.20;99.90;;;;;;5061289;28;19924;-69
2022/11/22 14:26:00;;;;;;;;;;;7.10;99.90;;;;;;5085767;28;20289;-70
2022/11/22 14:28:45;;;;;;;;;;;7.10;99.90;;;;;;5090409;28;19924;-77
2022/11/22 14:31:13;;;;;;;;;;;7.10;99.90;;;;;;5090279;28;19924;-71
2022/11/22 14:33:58;;;;;;;;;;;7.10;99.90;;;;;;5091072;28;20000;-69
2022/11/22 14:36:24;;;;;;;;;;;7.10;99.90;;;;;;5123736;28;19928;-70
2022/11/22 14:38:49;;;;;;;;;;;7.10;99.90;;;;;;5089200;28;19985;-72
2022/11/22 14:41:27;;;;;;;;;;;7.10;99.90;;;;;;5107213;28;19924;-71
2022/11/22 14:44:03;;;;;;;;;;;7.10;99.90;;;;;;5090008;28;19924;-70
2022/11/22 14:46:48;;;;;;;;;;;7.10;99.90;;;;;;5089949;28;20374;-71
2022/11/22 14:49:18;;;;;;;;;;;7.10;99.90;;;;;;5089813;28;19924;-70